ΕΜΥ, Εθνική Μετεωρολογική Υπηρεσία - Δελτία Καιρού, Προγνώσεις

ΑΕΡΟΝΑΥΤΙΛΙΑ

GREEK AIRPORTS CODES

LGKY 310500Z 04008KT 9999 SCT030 15/09 Q1008 RMK SCT080 BKN180 HAND WIND ANEMOMETER OBSERVATION=

EUROPEAN AIRPORTS CODES

LOWW 310520Z 17004KT CAVOK M06/M10 Q1026 NOSIG=